Time;durP1;ratioP1;P1;durP2;ratioP2;P2;SDS_P1;SDS_P2;PMS_P1;PMS_P2;Temp;Humidity;BMP_temperature;BMP_pressure;BME280_temperature;BME280_humidity;BME280_pressure;Samples;Min_cycle;Max_cycle;Signal;HPM_P1;HPM_P2
2023/12/30 00:00:55;;;;;;;0.60;0.60;;;;;;;12.36;76.03;100041.69;4989219;28;20479;-57
2023/12/30 00:03:21;;;;;;;0.60;0.60;;;;;;;12.32;76.97;100037.41;4989415;28;20041;-57
2023/12/30 00:05:46;;;;;;;0.60;0.60;;;;;;;12.29;78.30;100040.19;4990374;28;20054;-57
2023/12/30 00:08:12;;;;;;;0.70;0.70;;;;;;;12.24;79.98;100060.84;5008611;28;20082;-56
2023/12/30 00:10:37;;;;;;;0.60;0.60;;;;;;;12.22;81.06;100060.06;5001450;28;20026;-57
2023/12/30 00:13:03;;;;;;;0.60;0.60;;;;;;;12.17;81.76;100067.34;4993281;28;20049;-61
2023/12/30 00:15:28;;;;;;;0.70;0.70;;;;;;;12.17;83.26;100062.03;4991968;28;20026;-61
2023/12/30 00:17:53;;;;;;;0.60;0.60;;;;;;;12.09;85.47;100066.78;5008501;28;20030;-61
2023/12/30 00:20:20;;;;;;;0.60;0.60;;;;;;;12.01;87.42;100055.50;5002597;28;20041;-62
2023/12/30 00:22:45;;;;;;;0.63;0.63;;;;;;;11.97;89.59;100069.03;4988461;28;20165;-61
2023/12/30 00:25:10;;;;;;;0.60;0.60;;;;;;;11.81;92.45;100060.75;4994820;28;20530;-61
2023/12/30 00:27:36;;;;;;;0.70;0.70;;;;;;;11.77;94.29;100067.09;5007575;28;20038;-61
2023/12/30 00:30:03;;;;;;;0.70;0.70;;;;;;;11.52;95.77;100039.56;5007966;28;20498;-61
2023/12/30 00:32:28;;;;;;;0.60;0.60;;;;;;;11.69;96.35;100077.16;5006795;28;20430;-61
2023/12/30 00:34:53;;;;;;;0.70;0.70;;;;;;;11.55;97.86;100079.41;5008219;28;20014;-61
2023/12/30 00:37:20;;;;;;;0.70;0.70;;;;;;;11.56;98.55;100083.84;5008767;28;20034;-60
2023/12/30 00:39:46;;;;;;;0.60;0.60;;;;;;;11.48;99.31;100085.91;5008416;28;20034;-62
2023/12/30 00:42:11;;;;;;;0.70;0.70;;;;;;;11.50;100.00;100074.25;4991191;28;20033;-61
2023/12/30 00:44:36;;;;;;;0.60;0.60;;;;;;;11.52;100.00;100082.19;5008875;28;20044;-61
2023/12/30 00:47:02;;;;;;;0.63;0.63;;;;;;;11.46;100.00;100083.28;5008856;28;20034;-62
2023/12/30 00:49:27;;;;;;;0.70;0.70;;;;;;;11.45;100.00;100088.66;4990433;28;20041;-61
2023/12/30 00:51:53;;;;;;;0.70;0.70;;;;;;;11.34;100.00;100093.47;5008748;28;20506;-61
2023/12/30 00:54:18;;;;;;;0.70;0.70;;;;;;;11.34;100.00;100098.81;4991262;28;20022;-61
2023/12/30 00:56:43;;;;;;;0.60;0.60;;;;;;;11.36;100.00;100097.84;5009022;28;20117;-61
2023/12/30 00:59:09;;;;;;;0.65;0.65;;;;;;;11.35;100.00;100097.91;4990881;28;20045;-61
2023/12/30 01:01:34;;;;;;;0.70;0.70;;;;;;;11.38;100.00;100101.31;5000515;28;20021;-62
2023/12/30 01:04:00;;;;;;;0.70;0.70;;;;;;;11.36;100.00;100097.84;5008612;28;20033;-61
2023/12/30 01:06:26;;;;;;;0.70;0.70;;;;;;;11.28;100.00;100104.34;5008303;28;20073;-61
2023/12/30 01:08:51;;;;;;;0.70;0.70;;;;;;;11.26;100.00;100106.19;5008466;28;20026;-61
2023/12/30 01:11:16;;;;;;;0.80;0.80;;;;;;;11.26;100.00;100111.50;5007863;28;20076;-61
2023/12/30 01:13:42;;;;;;;0.70;0.70;;;;;;;11.29;100.00;100111.41;5002795;28;20033;-62
2023/12/30 01:16:07;;;;;;;0.60;0.60;;;;;;;11.32;100.00;100111.28;4995845;28;20033;-62
2023/12/30 01:18:32;;;;;;;0.60;0.60;;;;;;;11.22;100.00;100104.56;5007257;28;20026;-62
2023/12/30 01:20:58;;;;;;;0.70;0.70;;;;;;;11.14;100.00;100102.16;4992424;28;20041;-62
2023/12/30 01:23:23;;;;;;;0.70;0.70;;;;;;;11.14;100.00;100112.78;5005856;28;20458;-58
2023/12/30 01:25:49;;;;;;;0.73;0.73;;;;;;;11.10;100.00;100126.28;5018606;28;20060;-57
2023/12/30 01:28:14;;;;;;;0.70;0.70;;;;;;;11.07;100.00;100116.56;5016336;28;20451;-57
2023/12/30 01:30:40;;;;;;;0.70;0.70;;;;;;;11.04;100.00;100121.13;5007898;28;20087;-58
2023/12/30 01:33:05;;;;;;;0.80;0.80;;;;;;;11.04;100.00;100121.13;4990432;28;20085;-57
2023/12/30 01:35:31;;;;;;;0.70;0.70;;;;;;;11.06;100.00;100114.84;4989080;28;20034;-58
2023/12/30 01:37:57;;;;;;;0.70;0.70;;;;;;;11.07;100.00;100105.94;5001948;28;20036;-57
2023/12/30 01:40:26;;;;;;;0.75;0.75;;;;;;;11.03;100.00;100108.75;5012090;28;20378;-56
2023/12/30 01:42:51;;;;;;;0.70;0.70;;;;;;;11.04;100.00;100115.78;5012324;28;20112;-57
2023/12/30 01:45:16;;;;;;;0.70;0.70;;;;;;;11.03;100.00;100122.06;4994974;28;20371;-57
2023/12/30 01:47:42;;;;;;;0.70;0.70;;;;;;;10.98;100.00;100124.00;4991024;28;20033;-57
2023/12/30 01:50:09;;;;;;;0.70;0.70;;;;;;;10.99;100.00;100128.41;5011637;28;20030;-58
2023/12/30 01:52:35;;;;;;;0.70;0.70;;;;;;;10.98;100.00;100129.31;5010850;28;20034;-57
2023/12/30 01:55:06;;;;;;;0.60;0.60;;;;;;;11.01;100.00;100145.19;5011322;28;20029;-58
2023/12/30 01:57:32;;;;;;;0.75;0.75;;;;;;;11.01;100.00;100143.41;4998188;28;20037;-57
2023/12/30 02:00:01;;;;;;;0.70;0.70;;;;;;;10.91;100.00;100141.06;5000224;28;20037;-57
2023/12/30 02:02:27;;;;;;;0.70;0.70;;;;;;;10.91;100.00;100149.06;5007205;28;20101;-61
2023/12/30 02:04:54;;;;;;;0.70;0.70;;;;;;;10.88;100.00;100155.34;4991865;28;20034;-63
2023/12/30 02:07:20;;;;;;;0.70;0.70;;;;;;;10.86;100.00;100158.97;4991631;28;20046;-62
2023/12/30 02:09:45;;;;;;;0.70;0.70;;;;;;;10.85;100.00;100159.91;4991084;28;20037;-63
2023/12/30 02:12:11;;;;;;;0.70;0.70;;;;;;;10.78;100.00;100161.00;5008866;28;20030;-63
2023/12/30 02:14:36;;;;;;;0.70;0.70;;;;;;;10.77;100.00;100161.94;4982513;28;20030;-63
2023/12/30 02:17:02;;;;;;;0.70;0.70;;;;;;;10.82;100.00;100167.97;4990704;28;20026;-63
2023/12/30 02:19:27;;;;;;;0.70;0.70;;;;;;;10.83;100.00;100154.63;4992166;28;20034;-63
2023/12/30 02:21:53;;;;;;;0.70;0.70;;;;;;;10.85;100.00;100159.91;5000085;28;20113;-62
2023/12/30 02:24:20;;;;;;;0.80;0.80;;;;;;;10.88;100.00;100159.81;5003250;28;20026;-62
2023/12/30 02:26:46;;;;;;;0.70;0.70;;;;;;;10.90;100.00;100165.94;5010130;28;20395;-62
2023/12/30 02:29:11;;;;;;;0.70;0.70;;;;;;;10.89;100.00;100162.41;5010227;28;20037;-61
2023/12/30 02:31:45;;;;;;;0.70;0.70;;;;;;;10.85;100.00;100163.44;5010188;28;20048;-61
2023/12/30 02:34:17;;;;;;;0.70;0.70;;;;;;;10.83;100.00;100159.06;5010496;28;20105;-63
2023/12/30 02:36:46;;;;;;;0.80;0.80;;;;;;;10.93;100.00;100173.84;5010379;28;20055;-63
2023/12/30 02:39:12;;;;;;;0.80;0.80;;;;;;;10.87;100.00;100176.69;5010302;28;20585;-63
2023/12/30 02:41:38;;;;;;;0.70;0.70;;;;;;;10.86;100.00;100180.25;5010769;28;20021;-64
2023/12/30 02:44:04;;;;;;;0.70;0.70;;;;;;;10.85;100.00;100173.22;5009931;28;20645;-63
2023/12/30 02:46:30;;;;;;;0.70;0.70;;;;;;;10.82;100.00;100173.31;5010683;28;20092;-64
2023/12/30 02:48:57;;;;;;;0.70;0.70;;;;;;;10.79;100.00;100168.09;4994745;28;20032;-63
2023/12/30 02:51:23;;;;;;;0.70;0.70;;;;;;;10.76;100.00;100169.03;5010472;28;20025;-63
2023/12/30 02:53:48;;;;;;;0.70;0.70;;;;;;;10.84;100.00;100182.13;5010705;28;20045;-63
2023/12/30 02:56:21;;;;;;;0.70;0.70;;;;;;;10.74;100.00;100181.50;5009481;28;20044;-64
2023/12/30 02:58:58;;;;;;;0.70;0.70;;;;;;;10.75;100.00;100188.59;5010500;28;20026;-63
2023/12/30 03:01:25;;;;;;;0.80;0.80;;;;;;;10.73;100.00;100195.75;5008698;28;20360;-62
2023/12/30 03:03:53;;;;;;;0.70;0.70;;;;;;;10.77;100.00;100185.88;5007900;28;20034;-63
2023/12/30 03:06:18;;;;;;;0.80;0.80;;;;;;;10.77;100.00;100193.88;4988511;28;20043;-62
2023/12/30 03:08:43;;;;;;;0.80;0.80;;;;;;;10.74;100.00;100186.81;4988151;28;20030;-62
2023/12/30 03:11:12;;;;;;;0.80;0.80;;;;;;;10.74;100.00;100185.97;5005713;28;20022;-61
2023/12/30 03:13:37;;;;;;;0.70;0.70;;;;;;;10.71;100.00;100192.25;5007652;28;20426;-59
2023/12/30 03:16:04;;;;;;;0.70;0.70;;;;;;;10.70;100.00;100179.88;5008629;28;20076;-58
2023/12/30 03:18:30;;;;;;;0.70;0.70;;;;;;;10.70;100.00;100173.69;5008920;28;20034;-58
2023/12/30 03:20:55;;;;;;;0.70;0.70;;;;;;;10.63;100.00;100167.66;5006788;28;20498;-58
2023/12/30 03:23:20;;;;;;;0.80;0.80;;;;;;;10.72;100.00;100178.06;5009220;28;20030;-57
2023/12/30 03:25:46;;;;;;;0.70;0.70;;;;;;;10.72;100.00;100171.84;5008515;28;20030;-58
2023/12/30 03:28:11;;;;;;;0.80;0.80;;;;;;;10.72;100.00;100174.50;5000431;28;20018;-57
2023/12/30 03:30:37;;;;;;;0.70;0.70;;;;;;;10.74;100.00;100172.69;4990503;28;20030;-59
2023/12/30 03:33:02;;;;;;;0.70;0.70;;;;;;;10.77;100.00;100175.25;5009154;28;20025;-60
2023/12/30 03:35:28;;;;;;;0.80;0.80;;;;;;;10.80;100.00;100175.13;5010339;28;20029;-58
2023/12/30 03:37:53;;;;;;;0.70;0.70;;;;;;;10.82;100.00;100167.97;5010488;28;20030;-59
2023/12/30 03:40:18;;;;;;;0.70;0.70;;;;;;;10.77;100.00;100161.94;5009411;28;20029;-59
2023/12/30 03:42:44;;;;;;;0.70;0.70;;;;;;;10.81;100.00;100166.25;5009841;28;20112;-58
2023/12/30 03:45:09;;;;;;;0.70;0.70;;;;;;;10.81;100.00;100168.91;5009944;28;20111;-58
2023/12/30 03:47:35;;;;;;;0.70;0.70;;;;;;;10.82;100.00;100162.66;5010085;28;20053;-58
2023/12/30 03:50:00;;;;;;;0.70;0.70;;;;;;;10.86;100.00;100156.31;5009427;28;20064;-58
2023/12/30 03:52:27;;;;;;;0.70;0.70;;;;;;;10.84;100.00;100156.38;5009736;28;20026;-58
2023/12/30 03:54:55;;;;;;;0.70;0.70;;;;;;;10.87;100.00;100150.97;5005221;28;20014;-57
2023/12/30 03:57:21;;;;;;;0.70;0.70;;;;;;;10.87;100.00;100144.78;5008526;28;20021;-58
2023/12/30 03:59:46;;;;;;;0.70;0.70;;;;;;;10.85;100.00;100150.13;5005116;28;20773;-58
2023/12/30 04:02:12;;;;;;;0.70;0.70;;;;;;;10.86;100.00;100148.31;5007386;28;20113;-58
2023/12/30 04:04:38;;;;;;;0.70;0.70;;;;;;;10.91;100.00;100152.59;5008264;28;20128;-58
2023/12/30 04:07:03;;;;;;;0.70;0.70;;;;;;;10.89;100.00;100153.59;4986407;28;20101;-57
2023/12/30 04:09:29;;;;;;;0.70;0.70;;;;;;;10.88;100.00;100151.81;5008632;28;20037;-58
2023/12/30 04:11:54;;;;;;;0.70;0.70;;;;;;;10.93;100.00;100158.75;5007167;28;20803;-58
2023/12/30 04:14:20;;;;;;;0.70;0.70;;;;;;;10.93;100.00;100163.19;5008662;28;20022;-58
2023/12/30 04:16:45;;;;;;;0.70;0.70;;;;;;;10.97;100.00;100168.34;5008224;28;20352;-58
2023/12/30 04:19:11;;;;;;;0.70;0.70;;;;;;;10.93;100.00;100150.75;5008092;28;20032;-58
2023/12/30 04:21:36;;;;;;;0.70;0.70;;;;;;;11.03;100.00;100167.31;5005618;28;20150;-64
2023/12/30 04:24:01;;;;;;;0.70;0.70;;;;;;;11.04;100.00;100163.72;4996258;28;20033;-62
2023/12/30 04:26:27;;;;;;;0.75;0.75;;;;;;;10.99;100.00;100161.19;5025458;28;20381;-62
2023/12/30 04:28:52;;;;;;;0.70;0.70;;;;;;;11.02;100.00;100161.09;5011240;28;20034;-62
2023/12/30 04:31:18;;;;;;;0.70;0.70;;;;;;;11.03;100.00;100162.88;5009010;28;20017;-63
2023/12/30 04:33:43;;;;;;;0.70;0.70;;;;;;;11.02;100.00;100162.91;5008604;28;20137;-63
2023/12/30 04:36:08;;;;;;;0.70;0.70;;;;;;;11.02;100.00;100168.22;5009037;28;20029;-63
2023/12/30 04:38:34;;;;;;;0.70;0.70;;;;;;;11.00;100.00;100167.41;5008191;28;20374;-63
2023/12/30 04:40:59;;;;;;;0.70;0.70;;;;;;;10.99;100.00;100171.00;5008670;28;20041;-64
2023/12/30 04:43:25;;;;;;;0.70;0.70;;;;;;;11.01;100.00;100183.31;5008317;28;20113;-64
2023/12/30 04:45:50;;;;;;;0.70;0.70;;;;;;;10.99;100.00;100187.81;5007467;28;20026;-64
2023/12/30 04:48:15;;;;;;;0.70;0.70;;;;;;;10.97;100.00;100183.47;5008840;28;20029;-64
2023/12/30 04:50:42;;;;;;;0.60;0.60;;;;;;;10.97;100.00;100189.66;5000856;28;20113;-64
2023/12/30 04:53:08;;;;;;;0.70;0.70;;;;;;;10.97;100.00;100194.13;4990932;28;20446;-63
2023/12/30 04:55:33;;;;;;;0.80;0.80;;;;;;;10.94;100.00;100196.88;5016559;28;20086;-64
2023/12/30 04:58:00;;;;;;;0.70;0.70;;;;;;;10.97;100.00;100202.09;5028066;28;20128;-64
2023/12/30 05:00:26;;;;;;;0.70;0.70;;;;;;;10.89;100.00;100191.69;5015880;28;20542;-64
2023/12/30 05:02:51;;;;;;;0.70;0.70;;;;;;;10.90;100.00;100200.56;5007035;28;20029;-62
2023/12/30 05:05:17;;;;;;;0.70;0.70;;;;;;;10.83;100.00;100196.31;5006938;28;20030;-62
2023/12/30 05:07:42;;;;;;;0.73;0.73;;;;;;;10.88;100.00;100205.91;5006829;28;20041;-62
2023/12/30 05:10:09;;;;;;;0.80;0.80;;;;;;;10.91;100.00;100192.50;5006760;28;20394;-64
2023/12/30 05:12:35;;;;;;;0.80;0.80;;;;;;;10.87;100.00;100190.00;5007976;28;20368;-63
2023/12/30 05:15:00;;;;;;;0.70;0.70;;;;;;;10.87;100.00;100192.66;5011098;28;20101;-63
2023/12/30 05:17:25;;;;;;;0.60;0.60;;;;;;;10.87;100.00;100187.34;5010799;28;20812;-63
2023/12/30 05:19:51;;;;;;;0.80;0.80;;;;;;;10.89;100.00;100201.47;5012273;28;20040;-62
2023/12/30 05:22:16;;;;;;;0.70;0.70;;;;;;;10.87;100.00;100198.00;5011321;28;20364;-63
2023/12/30 05:24:42;;;;;;;0.80;0.80;;;;;;;10.77;100.00;100196.53;5014201;28;20033;-62
2023/12/30 05:27:07;;;;;;;0.70;0.70;;;;;;;10.74;100.00;100196.63;5014861;28;20029;-63
2023/12/30 05:29:33;;;;;;;0.80;0.80;;;;;;;10.71;100.00;100202.03;4994840;28;20027;-62
2023/12/30 05:31:58;;;;;;;0.70;0.70;;;;;;;10.66;100.00;100209.28;5001860;28;20064;-62
2023/12/30 05:34:24;;;;;;;0.80;0.80;;;;;;;10.69;100.00;100201.22;5012196;28;20022;-62
2023/12/30 05:36:49;;;;;;;0.70;0.70;;;;;;;10.68;100.00;100197.66;5011302;28;20479;-63
2023/12/30 05:39:15;;;;;;;0.80;0.80;;;;;;;10.69;100.00;100195.88;5012008;28;20026;-63
2023/12/30 05:41:40;;;;;;;0.77;0.77;;;;;;;10.68;100.00;100191.47;4993410;28;20030;-63
2023/12/30 05:44:06;;;;;;;0.70;0.70;;;;;;;10.54;100.00;100190.09;5011802;28;20022;-63
2023/12/30 05:46:31;;;;;;;0.80;0.80;;;;;;;10.47;100.00;100193.88;5011920;28;20030;-63
2023/12/30 05:48:57;;;;;;;0.80;0.80;;;;;;;10.38;100.00;100194.13;5010206;28;20621;-63
2023/12/30 05:51:22;;;;;;;0.80;0.80;;;;;;;10.35;100.00;100194.22;5011632;28;20037;-63
2023/12/30 05:53:48;;;;;;;0.70;0.70;;;;;;;10.35;100.00;100186.25;5011647;28;20022;-62
2023/12/30 05:56:23;;;;;;;0.70;0.70;;;;;;;10.35;100.00;100188.91;5010897;28;20618;-62
2023/12/30 05:58:50;;;;;;;0.80;0.80;;;;;;;10.41;100.00;100194.03;5006390;28;20110;-63
2023/12/30 06:01:15;;;;;;;0.70;0.70;;;;;;;10.39;100.00;100201.16;4996832;28;20072;-63
2023/12/30 06:03:41;;;;;;;0.77;0.77;;;;;;;10.43;100.00;100196.63;5002851;28;20026;-63
2023/12/30 06:06:06;;;;;;;0.70;0.70;;;;;;;10.35;100.00;100196.00;4990905;28;20428;-64
2023/12/30 06:08:33;;;;;;;0.80;0.80;;;;;;;10.36;100.00;100195.94;4991183;28;20616;-64
2023/12/30 06:10:58;;;;;;;0.70;0.70;;;;;;;10.40;100.00;100207.38;5009588;28;20029;-62
2023/12/30 06:13:24;;;;;;;0.80;0.80;;;;;;;10.44;100.00;100204.56;5011371;28;20029;-63
2023/12/30 06:15:50;;;;;;;0.80;0.80;;;;;;;10.46;100.00;100208.06;4999431;28;20072;-63
2023/12/30 06:18:16;;;;;;;0.77;0.77;;;;;;;10.44;100.00;100203.72;5011532;28;20030;-63
2023/12/30 06:20:46;;;;;;;0.70;0.70;;;;;;;10.48;100.00;100211.56;5011302;28;20037;-63
2023/12/30 06:23:12;;;;;;;0.70;0.70;;;;;;;10.47;100.00;100214.25;5009877;28;20026;-62
2023/12/30 06:25:37;;;;;;;0.70;0.70;;;;;;;10.47;100.00;100208.94;5011040;28;20030;-63
2023/12/30 06:28:03;;;;;;;0.70;0.70;;;;;;;10.50;100.00;100216.84;5010465;28;20026;-62
2023/12/30 06:30:29;;;;;;;0.80;0.80;;;;;;;10.51;100.00;100216.78;5005914;28;20022;-62
2023/12/30 06:32:54;;;;;;;0.80;0.80;;;;;;;10.51;100.00;100222.09;4992530;28;20797;-63
2023/12/30 06:35:20;;;;;;;0.80;0.80;;;;;;;10.54;100.00;100232.66;4991498;28;20065;-63
2023/12/30 06:37:47;;;;;;;0.70;0.70;;;;;;;10.55;100.00;100234.41;5003015;28;20057;-62
2023/12/30 06:40:13;;;;;;;0.70;0.70;;;;;;;10.56;100.00;100244.13;5010919;28;20077;-63
2023/12/30 06:42:39;;;;;;;0.80;0.80;;;;;;;10.50;100.00;100246.97;5010490;28;20428;-64
2023/12/30 06:45:05;;;;;;;0.80;0.80;;;;;;;10.51;100.00;100248.69;5010563;28;20084;-63
2023/12/30 06:47:30;;;;;;;0.70;0.70;;;;;;;10.51;100.00;100259.34;4990978;28;20628;-63
2023/12/30 06:49:55;;;;;;;0.70;0.70;;;;;;;10.48;100.00;100251.44;4998359;28;20023;-63
2023/12/30 06:52:21;;;;;;;0.73;0.73;;;;;;;10.47;100.00;100257.69;4991417;28;20077;-64
2023/12/30 06:54:46;;;;;;;0.80;0.80;;;;;;;10.43;100.00;100261.34;5000951;28;20055;-63
2023/12/30 06:57:12;;;;;;;0.80;0.80;;;;;;;10.43;100.00;100266.66;5009411;28;20024;-63
2023/12/30 06:59:37;;;;;;;0.70;0.70;;;;;;;10.41;100.00;100268.47;5009093;28;20522;-62
2023/12/30 07:02:03;;;;;;;0.70;0.70;;;;;;;10.47;100.00;100270.13;5008435;28;20071;-62
2023/12/30 07:04:28;;;;;;;0.75;0.75;;;;;;;10.51;100.00;100274.41;5009258;28;20109;-63
2023/12/30 07:06:54;;;;;;;0.70;0.70;;;;;;;10.49;100.00;100277.13;5009164;28;20061;-63
2023/12/30 07:09:20;;;;;;;0.77;0.77;;;;;;;10.50;100.00;100273.56;5007110;28;20033;-63
2023/12/30 07:11:46;;;;;;;0.80;0.80;;;;;;;10.48;100.00;100275.38;5010473;28;20115;-63
2023/12/30 07:14:11;;;;;;;0.80;0.80;;;;;;;10.46;100.00;100285.19;5009560;28;20092;-64
2023/12/30 07:16:36;;;;;;;0.70;0.70;;;;;;;10.33;100.00;100274.91;5010318;28;20033;-63
2023/12/30 07:19:02;;;;;;;0.70;0.70;;;;;;;10.25;100.00;100283.13;5010168;28;20057;-64
2023/12/30 07:21:27;;;;;;;0.70;0.70;;;;;;;10.24;100.00;100273.41;5007575;28;20296;-64
2023/12/30 07:23:53;;;;;;;0.80;0.80;;;;;;;10.24;100.00;100276.06;5010065;28;20029;-64
2023/12/30 07:26:18;;;;;;;0.80;0.80;;;;;;;10.22;100.00;100283.22;5025507;28;20036;-63
2023/12/30 07:28:43;;;;;;;0.70;0.70;;;;;;;10.28;100.00;100274.22;5007843;28;20032;-63
2023/12/30 07:31:09;;;;;;;0.80;0.80;;;;;;;10.30;100.00;100273.25;5009432;28;20026;-63
2023/12/30 07:33:35;;;;;;;0.80;0.80;;;;;;;10.34;100.00;100285.53;4991157;28;20037;-63
2023/12/30 07:36:03;;;;;;;0.80;0.80;;;;;;;10.29;100.00;100279.47;5008484;28;20451;-64
2023/12/30 07:38:30;;;;;;;0.80;0.80;;;;;;;10.33;100.00;100281.13;5009922;28;20129;-64
2023/12/30 07:40:56;;;;;;;0.73;0.73;;;;;;;10.36;100.00;100282.84;5009142;28;20084;-64
2023/12/30 07:43:21;;;;;;;0.77;0.77;;;;;;;10.40;100.00;100284.47;5008837;28;20037;-64
2023/12/30 07:45:47;;;;;;;0.80;0.80;;;;;;;10.43;100.00;100281.72;5009384;28;20028;-64
2023/12/30 07:48:12;;;;;;;0.80;0.80;;;;;;;10.34;100.00;100272.25;5006424;28;20060;-64
2023/12/30 07:50:38;;;;;;;0.80;0.80;;;;;;;10.42;100.00;100275.56;4988683;28;20061;-64
2023/12/30 07:53:03;;;;;;;0.80;0.80;;;;;;;10.48;100.00;100275.38;5000499;28;20036;-59
2023/12/30 07:55:29;;;;;;;0.80;0.80;;;;;;;10.55;100.00;100276.97;5008769;28;20029;-59
2023/12/30 07:57:55;;;;;;;0.80;0.80;;;;;;;10.56;100.00;100278.69;5008611;28;20058;-60
2023/12/30 08:00:21;;;;;;;0.80;0.80;;;;;;;10.61;100.00;100273.25;5007474;28;21068;-59
2023/12/30 08:02:46;;;;;;;0.80;0.80;;;;;;;10.52;100.00;100285.03;4997716;28;20593;-59
2023/12/30 08:05:12;;;;;;;0.70;0.70;;;;;;;10.51;100.00;100285.94;5010151;28;20038;-59
2023/12/30 08:07:37;;;;;;;0.70;0.70;;;;;;;10.54;100.00;100291.16;5009423;28;20116;-59
2023/12/30 08:10:03;;;;;;;0.80;0.80;;;;;;;10.59;100.00;100286.59;5006602;28;20395;-60
2023/12/30 08:12:28;;;;;;;0.80;0.80;;;;;;;10.66;100.00;100291.75;5010227;28;20037;-60
2023/12/30 08:14:54;;;;;;;0.80;0.80;;;;;;;10.62;100.00;100285.66;5009425;28;20022;-59
2023/12/30 08:17:19;;;;;;;0.80;0.80;;;;;;;10.70;100.00;100285.41;4995815;28;20034;-58
2023/12/30 08:19:45;;;;;;;0.70;0.70;;;;;;;10.72;100.00;100289.78;5004197;28;20018;-58
2023/12/30 08:22:10;;;;;;;0.80;0.80;;;;;;;10.75;100.00;100288.81;5007261;28;20048;-59
2023/12/30 08:24:36;;;;;;;0.80;0.80;;;;;;;10.69;100.00;100273.03;4992340;28;20084;-59
2023/12/30 08:27:02;;;;;;;0.70;0.70;;;;;;;10.94;100.00;100296.22;4991831;28;20033;-58
2023/12/30 08:29:27;;;;;;;0.70;0.70;;;;;;;11.03;100.00;100297.72;5010165;28;20018;-58
2023/12/30 08:31:52;;;;;;;0.70;0.70;;;;;;;11.08;100.00;100303.78;5007357;28;20174;-58
2023/12/30 08:34:20;;;;;;;0.70;0.70;;;;;;;11.07;100.00;100294.91;4994780;28;20022;-59
2023/12/30 08:36:46;;;;;;;0.80;0.80;;;;;;;11.10;100.00;100293.97;4972887;28;20057;-59
2023/12/30 08:39:11;;;;;;;0.70;0.70;;;;;;;11.14;100.00;100293.81;5006187;28;20684;-59
2023/12/30 08:41:37;;;;;;;0.70;0.70;;;;;;;11.19;100.00;100293.66;5009449;28;20030;-58
2023/12/30 08:44:03;;;;;;;0.70;0.70;;;;;;;11.22;100.00;100290.94;4990976;28;20081;-59
2023/12/30 08:46:28;;;;;;;0.70;0.70;;;;;;;11.32;100.00;100289.72;5009507;28;20038;-59
2023/12/30 08:48:53;;;;;;;0.70;0.70;;;;;;;11.49;100.00;100292.72;4996483;28;20398;-59
2023/12/30 08:51:19;;;;;;;0.70;0.70;;;;;;;11.70;100.00;100284.06;5015175;28;20030;-59
2023/12/30 08:53:44;;;;;;;0.70;0.70;;;;;;;12.18;100.00;100285.09;5014127;28;20018;-60
2023/12/30 08:56:10;;;;;;;0.70;0.70;;;;;;;13.30;100.00;100288.91;5029401;28;20087;-58
2023/12/30 08:58:35;;;;;;;0.60;0.60;;;;;;;14.69;100.00;100284.78;5027109;28;20475;-59
2023/12/30 09:01:01;;;;;;;0.50;0.50;;;;;;;15.60;93.23;100284.91;5014766;28;20029;-59
2023/12/30 09:03:26;;;;;;;0.57;0.57;;;;;;;16.06;82.98;100285.31;5015118;28;20740;-64
2023/12/30 09:05:51;;;;;;;0.50;0.50;;;;;;;16.50;74.49;100287.50;5015023;28;20026;-65
2023/12/30 09:08:18;;;;;;;0.40;0.40;;;;;;;16.45;76.18;100285.94;5010999;28;20037;-64
2023/12/30 09:10:44;;;;;;;0.40;0.40;;;;;;;15.73;75.53;100285.19;5014984;28;20028;-64
2023/12/30 09:13:10;;;;;;;0.50;0.50;;;;;;;15.33;80.51;100298.75;5014137;28;20512;-64
2023/12/30 09:15:36;;;;;;;0.50;0.50;;;;;;;16.13;78.21;100282.22;5014987;28;20072;-65
2023/12/30 09:18:02;;;;;;;0.52;0.52;;;;;;;16.55;73.27;100292.63;5014997;28;20033;-64
2023/12/30 09:20:27;;;;;;;0.50;0.50;;;;;;;16.81;70.74;100292.09;5014166;28;20030;-64
2023/12/30 09:22:53;;;;;;;0.50;0.50;;;;;;;17.51;69.82;100283.75;5014413;28;20075;-65
2023/12/30 09:25:18;;;;;;;0.40;0.40;;;;;;;17.83;63.62;100283.63;5014931;28;20032;-64
2023/12/30 09:27:45;;;;;;;0.40;0.40;;;;;;;17.75;61.76;100287.72;5014298;28;20044;-64
2023/12/30 09:30:11;;;;;;;0.47;0.47;;;;;;;18.07;61.50;100290.28;5015051;28;20045;-64
2023/12/30 09:32:36;;;;;;;0.50;0.50;;;;;;;18.38;61.90;100290.19;4999946;28;20472;-65
2023/12/30 09:35:03;;;;;;;0.40;0.40;;;;;;;18.81;55.78;100277.72;5008782;28;20033;-65
2023/12/30 09:37:28;;;;;;;0.38;0.38;;;;;;;19.18;56.40;100292.44;5012064;28;20049;-65
2023/12/30 09:39:54;;;;;;;0.38;0.38;;;;;;;18.63;55.02;100299.53;5014231;28;20017;-64
2023/12/30 09:42:20;;;;;;;0.40;0.40;;;;;;;18.56;56.96;100298.16;5010436;28;20475;-64
2023/12/30 09:44:46;;;;;;;0.32;0.32;;;;;;;18.93;55.68;100309.28;5010115;28;20025;-64
2023/12/30 09:47:13;;;;;;;0.30;0.30;;;;;;;19.06;54.79;100304.00;5013659;28;20042;-64
2023/12/30 09:49:43;;;;;;;0.30;0.30;;;;;;;19.85;52.70;100305.19;5012699;28;20030;-64
2023/12/30 09:52:08;;;;;;;0.40;0.40;;;;;;;20.40;50.15;100309.50;5012439;28;20109;-65
2023/12/30 09:54:34;;;;;;;0.30;0.30;;;;;;;20.27;49.96;100303.22;5010034;28;20100;-65
2023/12/30 09:57:02;;;;;;;0.40;0.40;;;;;;;19.56;49.62;100304.38;5014100;28;20057;-65
2023/12/30 09:59:29;;;;;;;0.40;0.40;;;;;;;17.84;54.47;100298.81;5010451;28;20040;-63
2023/12/30 10:01:55;;;;;;;0.40;0.40;;;;;;;16.37;59.59;100310.53;5010028;28;20030;-63
2023/12/30 10:04:21;;;;;;;0.40;0.40;;;;;;;15.23;64.86;100303.66;5010672;28;20081;-64
2023/12/30 10:06:48;;;;;;;0.40;0.40;;;;;;;14.29;69.74;100300.84;5010511;28;20450;-63
2023/12/30 10:09:22;;;;;;;0.40;0.40;;;;;;;13.76;74.60;100302.19;5011530;28;20041;-63
2023/12/30 10:11:47;;;;;;;;;;;;;;;13.48;77.13;100315.78;5011342;28;20428;-58
2023/12/30 10:14:13;;;;;;;0.50;0.50;;;;;;;13.15;79.09;100304.63;5011159;28;19957;-59
2023/12/30 10:16:38;;;;;;;0.50;0.50;;;;;;;13.01;81.56;100306.09;5011693;28;20039;-58
2023/12/30 10:19:11;;;;;;;0.60;0.60;;;;;;;12.90;82.98;100308.22;5010807;28;20479;-60
2023/12/30 10:21:39;;;;;;;0.50;0.50;;;;;;;12.73;84.86;100303.53;4997424;28;20795;-58
2023/12/30 10:24:06;;;;;;;0.50;0.50;;;;;;;12.65;85.84;100300.25;4977247;28;20034;-59
2023/12/30 10:26:39;;;;;;;0.60;0.60;;;;;;;12.68;86.39;100289.50;4997665;28;20030;-57
2023/12/30 10:29:08;;;;;;;0.60;0.60;;;;;;;12.70;86.94;100303.63;4992248;28;20030;-59
2023/12/30 10:31:33;;;;;;;0.57;0.57;;;;;;;12.76;87.55;100298.09;4997636;28;20026;-58
2023/12/30 10:33:59;;;;;;;0.60;0.60;;;;;;;12.75;87.76;100299.00;5009871;28;20123;-59
2023/12/30 10:36:26;;;;;;;0.60;0.60;;;;;;;12.78;88.40;100296.22;5010312;28;20092;-59
2023/12/30 10:38:53;;;;;;;0.60;0.60;;;;;;;12.78;89.36;100290.88;5010148;28;20018;-58
2023/12/30 10:41:19;;;;;;;0.60;0.60;;;;;;;12.85;90.51;100291.53;5008710;28;20761;-58
2023/12/30 10:43:45;;;;;;;0.60;0.60;;;;;;;12.86;91.65;100293.28;5010130;28;20030;-59
2023/12/30 10:46:12;;;;;;;0.60;0.60;;;;;;;12.83;92.12;100294.25;5010041;28;20037;-58
2023/12/30 10:49:03;;;;;;;0.50;0.50;;;;;;;12.80;92.27;100289.03;5009963;28;20030;-58
2023/12/30 10:51:29;;;;;;;0.50;0.50;;;;;;;12.89;93.41;100294.03;4990933;28;20061;-58
2023/12/30 10:54:05;;;;;;;0.60;0.60;;;;;;;13.00;93.33;100297.16;4990718;28;20502;-59
2023/12/30 10:56:39;;;;;;;0.55;0.55;;;;;;;12.97;92.94;100296.41;5005648;28;20017;-58
2023/12/30 10:59:07;;;;;;;0.70;0.70;;;;;;;13.04;92.63;100282.81;5009642;28;20065;-58
2023/12/30 11:01:33;;;;;;;0.60;0.60;;;;;;;13.13;93.16;100281.56;5007550;28;20065;-57
2023/12/30 11:04:01;;;;;;;0.50;0.50;;;;;;;13.27;92.85;100286.38;5008788;28;20501;-58
2023/12/30 11:07:05;;;;;;;0.50;0.50;;;;;;;13.23;92.38;100286.50;5010111;28;20052;-58
2023/12/30 11:09:32;;;;;;;0.60;0.60;;;;;;;13.33;91.88;100272.78;4957961;28;20030;-58
2023/12/30 11:12:02;;;;;;;0.50;0.50;;;;;;;13.28;91.50;100275.63;5009784;28;20034;-58
2023/12/30 11:14:27;;;;;;;0.60;0.60;;;;;;;13.42;91.73;100273.28;5002673;28;20019;-58